sensor_id;sensor_type;location;lat;lon;timestamp;temperature;humidity
30150;DHT22;16962;48.646;9.026;2023-07-13T00:02:02;17.40;90.80
30150;DHT22;16962;48.646;9.026;2023-07-13T00:04:49;17.40;98.90
30150;DHT22;16962;48.646;9.026;2023-07-13T00:07:37;17.30;99.90
30150;DHT22;16962;48.646;9.026;2023-07-13T00:10:24;17.20;99.90
30150;DHT22;16962;48.646;9.026;2023-07-13T00:13:11;17.20;99.90
30150;DHT22;16962;48.646;9.026;2023-07-13T00:15:59;17.10;99.90
30150;DHT22;16962;48.646;9.026;2023-07-13T00:18:47;17.10;99.90
30150;DHT22;16962;48.646;9.026;2023-07-13T00:21:36;17.10;99.90
30150;DHT22;16962;48.646;9.026;2023-07-13T00:24:24;17.10;99.90
30150;DHT22;16962;48.646;9.026;2023-07-13T00:27:11;17.10;99.90
30150;DHT22;16962;48.646;9.026;2023-07-13T00:29:59;17.00;99.90
30150;DHT22;16962;48.646;9.026;2023-07-13T00:32:46;17.00;99.90
30150;DHT22;16962;48.646;9.026;2023-07-13T00:35:34;17.00;99.90
30150;DHT22;16962;48.646;9.026;2023-07-13T00:38:22;16.90;99.90
30150;DHT22;16962;48.646;9.026;2023-07-13T00:41:13;16.90;99.90
30150;DHT22;16962;48.646;9.026;2023-07-13T00:44:00;16.90;99.90
30150;DHT22;16962;48.646;9.026;2023-07-13T00:46:48;16.90;99.90
30150;DHT22;16962;48.646;9.026;2023-07-13T00:49:38;16.90;99.90
30150;DHT22;16962;48.646;9.026;2023-07-13T00:52:26;16.80;99.90
30150;DHT22;16962;48.646;9.026;2023-07-13T00:55:17;16.80;99.90
30150;DHT22;16962;48.646;9.026;2023-07-13T00:58:05;16.90;99.90
30150;DHT22;16962;48.646;9.026;2023-07-13T01:00:53;17.00;99.90
30150;DHT22;16962;48.646;9.026;2023-07-13T01:03:43;17.00;99.90
30150;DHT22;16962;48.646;9.026;2023-07-13T01:06:31;17.00;99.90
30150;DHT22;16962;48.646;9.026;2023-07-13T01:09:19;17.00;98.70
30150;DHT22;16962;48.646;9.026;2023-07-13T01:12:08;17.00;99.90
30150;DHT22;16962;48.646;9.026;2023-07-13T01:15:01;17.00;99.00
30150;DHT22;16962;48.646;9.026;2023-07-13T01:17:51;17.00;98.40
30150;DHT22;16962;48.646;9.026;2023-07-13T01:20:39;17.00;97.80
30150;DHT22;16962;48.646;9.026;2023-07-13T01:23:27;17.00;99.70
30150;DHT22;16962;48.646;9.026;2023-07-13T01:26:15;17.00;99.90
30150;DHT22;16962;48.646;9.026;2023-07-13T01:29:05;16.80;99.90
30150;DHT22;16962;48.646;9.026;2023-07-13T01:31:52;16.70;99.90
30150;DHT22;16962;48.646;9.026;2023-07-13T01:34:40;16.60;99.90
30150;DHT22;16962;48.646;9.026;2023-07-13T01:37:29;16.50;99.90
30150;DHT22;16962;48.646;9.026;2023-07-13T01:40:20;16.40;99.90
30150;DHT22;16962;48.646;9.026;2023-07-13T01:43:11;16.40;99.90
30150;DHT22;16962;48.646;9.026;2023-07-13T01:45:58;16.40;99.90
30150;DHT22;16962;48.646;9.026;2023-07-13T01:49:05;16.30;99.90
30150;DHT22;16962;48.646;9.026;2023-07-13T01:51:53;16.20;99.90
30150;DHT22;16962;48.646;9.026;2023-07-13T01:54:42;16.10;99.90
30150;DHT22;16962;48.646;9.026;2023-07-13T01:57:29;16.10;99.90
30150;DHT22;16962;48.646;9.026;2023-07-13T02:00:18;15.90;99.90
30150;DHT22;16962;48.646;9.026;2023-07-13T02:03:05;15.90;99.90
30150;DHT22;16962;48.646;9.026;2023-07-13T02:05:53;15.80;99.90
30150;DHT22;16962;48.646;9.026;2023-07-13T02:08:42;15.80;99.90
30150;DHT22;16962;48.646;9.026;2023-07-13T02:11:29;15.70;99.90
30150;DHT22;16962;48.646;9.026;2023-07-13T02:14:22;15.60;99.90
30150;DHT22;16962;48.646;9.026;2023-07-13T02:17:10;15.50;99.90
30150;DHT22;16962;48.646;9.026;2023-07-13T02:19:58;15.40;99.90
30150;DHT22;16962;48.646;9.026;2023-07-13T02:22:45;15.20;99.90
30150;DHT22;16962;48.646;9.026;2023-07-13T02:25:32;15.00;99.90
30150;DHT22;16962;48.646;9.026;2023-07-13T02:28:20;14.90;99.90
30150;DHT22;16962;48.646;9.026;2023-07-13T02:31:09;14.80;99.90
30150;DHT22;16962;48.646;9.026;2023-07-13T02:33:57;14.70;99.90
30150;DHT22;16962;48.646;9.026;2023-07-13T02:36:47;14.70;99.90
30150;DHT22;16962;48.646;9.026;2023-07-13T02:39:34;14.60;99.90
30150;DHT22;16962;48.646;9.026;2023-07-13T02:42:23;14.60;99.90
30150;DHT22;16962;48.646;9.026;2023-07-13T02:45:13;14.60;99.90
30150;DHT22;16962;48.646;9.026;2023-07-13T02:48:03;14.50;99.90
30150;DHT22;16962;48.646;9.026;2023-07-13T02:50:50;14.50;99.90
30150;DHT22;16962;48.646;9.026;2023-07-13T02:53:37;14.60;99.90
30150;DHT22;16962;48.646;9.026;2023-07-13T02:56:27;14.70;99.90
30150;DHT22;16962;48.646;9.026;2023-07-13T02:59:14;14.60;99.90
30150;DHT22;16962;48.646;9.026;2023-07-13T03:02:02;14.80;99.90
30150;DHT22;16962;48.646;9.026;2023-07-13T03:04:50;14.90;99.90
30150;DHT22;16962;48.646;9.026;2023-07-13T03:07:38;15.00;99.90
30150;DHT22;16962;48.646;9.026;2023-07-13T03:10:25;15.10;99.90
30150;DHT22;16962;48.646;9.026;2023-07-13T03:13:15;15.20;99.90
30150;DHT22;16962;48.646;9.026;2023-07-13T03:16:02;15.30;99.90
30150;DHT22;16962;48.646;9.026;2023-07-13T03:18:52;15.40;99.90
30150;DHT22;16962;48.646;9.026;2023-07-13T03:21:39;15.40;99.90
30150;DHT22;16962;48.646;9.026;2023-07-13T03:24:26;15.40;99.90
30150;DHT22;16962;48.646;9.026;2023-07-13T03:27:14;15.40;99.90
30150;DHT22;16962;48.646;9.026;2023-07-13T03:30:05;15.50;99.90
30150;DHT22;16962;48.646;9.026;2023-07-13T03:32:55;15.60;99.90
30150;DHT22;16962;48.646;9.026;2023-07-13T03:35:42;15.60;99.90
30150;DHT22;16962;48.646;9.026;2023-07-13T03:38:29;15.60;99.90
30150;DHT22;16962;48.646;9.026;2023-07-13T03:41:17;15.60;99.90
30150;DHT22;16962;48.646;9.026;2023-07-13T03:44:09;15.60;99.90
30150;DHT22;16962;48.646;9.026;2023-07-13T03:46:56;15.60;99.90
30150;DHT22;16962;48.646;9.026;2023-07-13T03:49:44;15.60;99.90
30150;DHT22;16962;48.646;9.026;2023-07-13T03:52:35;15.50;99.90
30150;DHT22;16962;48.646;9.026;2023-07-13T03:55:22;15.50;99.90
30150;DHT22;16962;48.646;9.026;2023-07-13T04:01:19;15.30;99.90
30150;DHT22;16962;48.646;9.026;2023-07-13T04:04:20;15.20;99.90
30150;DHT22;16962;48.646;9.026;2023-07-13T04:07:12;15.20;99.90
30150;DHT22;16962;48.646;9.026;2023-07-13T04:10:00;15.30;99.90
30150;DHT22;16962;48.646;9.026;2023-07-13T04:12:52;15.40;99.90
30150;DHT22;16962;48.646;9.026;2023-07-13T04:15:39;15.40;1.00
30150;DHT22;16962;48.646;9.026;2023-07-13T04:18:27;15.40;1.00
30150;DHT22;16962;48.646;9.026;2023-07-13T04:21:15;15.40;99.90
30150;DHT22;16962;48.646;9.026;2023-07-13T04:24:03;15.30;99.90
30150;DHT22;16962;48.646;9.026;2023-07-13T04:26:51;15.40;99.90
30150;DHT22;16962;48.646;9.026;2023-07-13T04:29:38;15.30;99.90
30150;DHT22;16962;48.646;9.026;2023-07-13T04:32:25;15.20;99.90
30150;DHT22;16962;48.646;9.026;2023-07-13T04:35:13;15.20;99.90
30150;DHT22;16962;48.646;9.026;2023-07-13T04:38:01;15.10;99.90
30150;DHT22;16962;48.646;9.026;2023-07-13T04:40:50;15.10;99.90
30150;DHT22;16962;48.646;9.026;2023-07-13T04:43:40;15.00;99.90
30150;DHT22;16962;48.646;9.026;2023-07-13T04:46:29;15.00;1.00
30150;DHT22;16962;48.646;9.026;2023-07-13T04:49:16;15.10;1.00
30150;DHT22;16962;48.646;9.026;2023-07-13T04:52:07;15.10;1.00
30150;DHT22;16962;48.646;9.026;2023-07-13T04:54:59;15.20;1.00
30150;DHT22;16962;48.646;9.026;2023-07-13T04:57:47;15.30;1.00
30150;DHT22;16962;48.646;9.026;2023-07-13T05:00:34;15.40;1.00
30150;DHT22;16962;48.646;9.026;2023-07-13T05:03:24;15.50;1.00
30150;DHT22;16962;48.646;9.026;2023-07-13T05:06:11;15.60;1.00
30150;DHT22;16962;48.646;9.026;2023-07-13T05:08:58;15.80;1.00
30150;DHT22;16962;48.646;9.026;2023-07-13T05:11:46;15.90;1.00
30150;DHT22;16962;48.646;9.026;2023-07-13T05:14:36;16.10;1.00
30150;DHT22;16962;48.646;9.026;2023-07-13T05:17:23;16.30;1.00
30150;DHT22;16962;48.646;9.026;2023-07-13T05:20:10;16.50;1.00
30150;DHT22;16962;48.646;9.026;2023-07-13T05:22:57;16.60;99.90
30150;DHT22;16962;48.646;9.026;2023-07-13T05:25:45;16.70;99.90
30150;DHT22;16962;48.646;9.026;2023-07-13T05:28:33;16.70;99.90
30150;DHT22;16962;48.646;9.026;2023-07-13T05:31:20;16.90;99.90
30150;DHT22;16962;48.646;9.026;2023-07-13T05:34:09;17.10;99.90
30150;DHT22;16962;48.646;9.026;2023-07-13T05:36:58;17.20;99.90
30150;DHT22;16962;48.646;9.026;2023-07-13T05:39:45;17.20;99.90
30150;DHT22;16962;48.646;9.026;2023-07-13T05:42:33;17.00;99.90
30150;DHT22;16962;48.646;9.026;2023-07-13T05:45:30;16.90;99.90
30150;DHT22;16962;48.646;9.026;2023-07-13T05:48:25;16.80;99.90
30150;DHT22;16962;48.646;9.026;2023-07-13T05:51:21;16.80;99.90
30150;DHT22;16962;48.646;9.026;2023-07-13T05:54:09;16.70;99.90
30150;DHT22;16962;48.646;9.026;2023-07-13T05:56:56;16.80;99.90
30150;DHT22;16962;48.646;9.026;2023-07-13T05:59:46;16.90;99.90
30150;DHT22;16962;48.646;9.026;2023-07-13T06:02:35;17.00;99.90
30150;DHT22;16962;48.646;9.026;2023-07-13T06:05:23;17.10;99.90
30150;DHT22;16962;48.646;9.026;2023-07-13T06:08:10;17.20;99.90
30150;DHT22;16962;48.646;9.026;2023-07-13T06:13:54;17.20;99.90
30150;DHT22;16962;48.646;9.026;2023-07-13T06:16:44;17.20;99.90
30150;DHT22;16962;48.646;9.026;2023-07-13T06:19:35;17.20;99.90
30150;DHT22;16962;48.646;9.026;2023-07-13T06:22:22;17.40;99.90
30150;DHT22;16962;48.646;9.026;2023-07-13T06:25:09;17.60;99.90
30150;DHT22;16962;48.646;9.026;2023-07-13T06:28:04;17.90;99.90
30150;DHT22;16962;48.646;9.026;2023-07-13T06:30:51;18.00;91.20
30150;DHT22;16962;48.646;9.026;2023-07-13T06:33:39;18.30;33.90
30150;DHT22;16962;48.646;9.026;2023-07-13T06:36:26;18.30;26.70
30150;DHT22;16962;48.646;9.026;2023-07-13T06:39:13;18.30;17.70
30150;DHT22;16962;48.646;9.026;2023-07-13T06:42:00;18.30;1.40
30150;DHT22;16962;48.646;9.026;2023-07-13T06:44:47;18.40;1.00
30150;DHT22;16962;48.646;9.026;2023-07-13T06:47:37;18.60;1.00
30150;DHT22;16962;48.646;9.026;2023-07-13T06:50:24;18.60;1.00
30150;DHT22;16962;48.646;9.026;2023-07-13T06:53:20;18.70;1.00
30150;DHT22;16962;48.646;9.026;2023-07-13T06:56:10;18.80;1.00
30150;DHT22;16962;48.646;9.026;2023-07-13T06:58:58;19.00;1.00
30150;DHT22;16962;48.646;9.026;2023-07-13T07:01:47;19.20;1.00
30150;DHT22;16962;48.646;9.026;2023-07-13T07:04:37;19.40;1.00
30150;DHT22;16962;48.646;9.026;2023-07-13T07:07:24;19.70;1.00
30150;DHT22;16962;48.646;9.026;2023-07-13T07:10:12;20.00;1.00
30150;DHT22;16962;48.646;9.026;2023-07-13T07:12:59;20.30;1.00
30150;DHT22;16962;48.646;9.026;2023-07-13T07:15:47;20.50;1.00
30150;DHT22;16962;48.646;9.026;2023-07-13T07:18:35;20.80;1.00
30150;DHT22;16962;48.646;9.026;2023-07-13T07:21:23;21.20;1.00
30150;DHT22;16962;48.646;9.026;2023-07-13T07:24:13;21.70;1.00
30150;DHT22;16962;48.646;9.026;2023-07-13T07:27:00;22.00;1.00
30150;DHT22;16962;48.646;9.026;2023-07-13T07:29:50;22.10;1.00
30150;DHT22;16962;48.646;9.026;2023-07-13T07:33:00;22.30;1.00
30150;DHT22;16962;48.646;9.026;2023-07-13T07:35:54;22.20;1.00
30150;DHT22;16962;48.646;9.026;2023-07-13T07:38:44;22.30;1.00
30150;DHT22;16962;48.646;9.026;2023-07-13T07:41:31;22.40;1.00
30150;DHT22;16962;48.646;9.026;2023-07-13T07:44:22;22.30;1.00
30150;DHT22;16962;48.646;9.026;2023-07-13T07:47:09;22.80;1.00
30150;DHT22;16962;48.646;9.026;2023-07-13T07:49:59;23.40;1.00
30150;DHT22;16962;48.646;9.026;2023-07-13T07:52:49;23.90;1.00
30150;DHT22;16962;48.646;9.026;2023-07-13T07:55:38;24.50;1.00
30150;DHT22;16962;48.646;9.026;2023-07-13T07:58:28;25.00;1.00
30150;DHT22;16962;48.646;9.026;2023-07-13T08:01:18;25.10;1.00
30150;DHT22;16962;48.646;9.026;2023-07-13T08:04:08;25.20;1.00
30150;DHT22;16962;48.646;9.026;2023-07-13T08:07:16;25.60;1.00
30150;DHT22;16962;48.646;9.026;2023-07-13T08:10:07;25.80;1.00
30150;DHT22;16962;48.646;9.026;2023-07-13T08:12:57;26.20;1.00
30150;DHT22;16962;48.646;9.026;2023-07-13T08:15:50;26.30;1.00
30150;DHT22;16962;48.646;9.026;2023-07-13T08:18:38;25.60;1.00
30150;DHT22;16962;48.646;9.026;2023-07-13T08:21:25;25.60;1.00
30150;DHT22;16962;48.646;9.026;2023-07-13T08:24:13;25.30;1.00
30150;DHT22;16962;48.646;9.026;2023-07-13T08:27:00;25.00;1.00
30150;DHT22;16962;48.646;9.026;2023-07-13T08:29:50;24.90;1.00
30150;DHT22;16962;48.646;9.026;2023-07-13T08:32:40;25.10;1.00
30150;DHT22;16962;48.646;9.026;2023-07-13T08:35:28;25.40;1.00
30150;DHT22;16962;48.646;9.026;2023-07-13T08:38:16;25.70;1.00
30150;DHT22;16962;48.646;9.026;2023-07-13T08:41:17;26.10;1.00
30150;DHT22;16962;48.646;9.026;2023-07-13T08:44:15;27.00;1.00
30150;DHT22;16962;48.646;9.026;2023-07-13T08:47:05;26.90;1.00
30150;DHT22;16962;48.646;9.026;2023-07-13T08:49:56;26.50;1.00
30150;DHT22;16962;48.646;9.026;2023-07-13T08:52:46;27.10;1.00
30150;DHT22;16962;48.646;9.026;2023-07-13T08:55:37;27.20;1.00
30150;DHT22;16962;48.646;9.026;2023-07-13T08:58:27;26.50;1.00
30150;DHT22;16962;48.646;9.026;2023-07-13T09:04:48;25.90;1.00
30150;DHT22;16962;48.646;9.026;2023-07-13T09:17:34;28.80;1.00
30150;DHT22;16962;48.646;9.026;2023-07-13T09:20:35;29.90;1.00
30150;DHT22;16962;48.646;9.026;2023-07-13T09:23:24;29.20;1.00
30150;DHT22;16962;48.646;9.026;2023-07-13T09:26:20;27.60;1.00
30150;DHT22;16962;48.646;9.026;2023-07-13T09:29:23;26.50;1.00
30150;DHT22;16962;48.646;9.026;2023-07-13T09:32:18;26.30;1.00
30150;DHT22;16962;48.646;9.026;2023-07-13T09:35:19;25.90;1.00
30150;DHT22;16962;48.646;9.026;2023-07-13T09:38:13;26.00;1.00
30150;DHT22;16962;48.646;9.026;2023-07-13T09:41:11;26.00;1.00
30150;DHT22;16962;48.646;9.026;2023-07-13T09:44:13;26.90;1.00
30150;DHT22;16962;48.646;9.026;2023-07-13T09:47:01;27.70;1.00
30150;DHT22;16962;48.646;9.026;2023-07-13T09:49:55;28.00;1.00
30150;DHT22;16962;48.646;9.026;2023-07-13T09:52:49;27.50;1.00
30150;DHT22;16962;48.646;9.026;2023-07-13T09:55:40;27.10;1.00
30150;DHT22;16962;48.646;9.026;2023-07-13T09:58:30;27.60;1.00
30150;DHT22;16962;48.646;9.026;2023-07-13T10:01:38;28.60;1.00
30150;DHT22;16962;48.646;9.026;2023-07-13T10:04:30;29.80;1.00
30150;DHT22;16962;48.646;9.026;2023-07-13T10:07:22;30.00;1.00
30150;DHT22;16962;48.646;9.026;2023-07-13T10:10:18;30.20;1.00
30150;DHT22;16962;48.646;9.026;2023-07-13T10:13:24;29.80;1.00
30150;DHT22;16962;48.646;9.026;2023-07-13T10:16:18;29.60;1.00
30150;DHT22;16962;48.646;9.026;2023-07-13T10:19:18;30.10;1.00
30150;DHT22;16962;48.646;9.026;2023-07-13T10:22:19;29.90;1.00
30150;DHT22;16962;48.646;9.026;2023-07-13T10:25:24;29.70;1.00
30150;DHT22;16962;48.646;9.026;2023-07-13T10:31:15;29.40;1.00
30150;DHT22;16962;48.646;9.026;2023-07-13T10:34:03;29.30;1.00
30150;DHT22;16962;48.646;9.026;2023-07-13T10:36:53;29.60;1.00
30150;DHT22;16962;48.646;9.026;2023-07-13T10:39:41;29.70;1.00
30150;DHT22;16962;48.646;9.026;2023-07-13T10:42:46;28.90;1.00
30150;DHT22;16962;48.646;9.026;2023-07-13T10:45:35;27.80;1.00
30150;DHT22;16962;48.646;9.026;2023-07-13T10:48:25;26.60;1.00
30150;DHT22;16962;48.646;9.026;2023-07-13T10:51:17;25.90;1.00
30150;DHT22;16962;48.646;9.026;2023-07-13T10:54:17;25.70;1.00
30150;DHT22;16962;48.646;9.026;2023-07-13T10:57:20;26.40;1.00
30150;DHT22;16962;48.646;9.026;2023-07-13T11:00:30;27.20;1.00
30150;DHT22;16962;48.646;9.026;2023-07-13T11:10:54;31.20;1.00
30150;DHT22;16962;48.646;9.026;2023-07-13T11:16:46;31.90;1.00
30150;DHT22;16962;48.646;9.026;2023-07-13T11:19:44;33.10;1.00
30150;DHT22;16962;48.646;9.026;2023-07-13T11:25:36;31.90;1.00
30150;DHT22;16962;48.646;9.026;2023-07-13T11:28:27;30.30;1.00
30150;DHT22;16962;48.646;9.026;2023-07-13T11:31:20;30.60;1.00
30150;DHT22;16962;48.646;9.026;2023-07-13T11:34:15;31.30;1.00
30150;DHT22;16962;48.646;9.026;2023-07-13T11:37:12;30.80;1.00
30150;DHT22;16962;48.646;9.026;2023-07-13T11:40:02;29.70;1.00
30150;DHT22;16962;48.646;9.026;2023-07-13T11:42:51;30.80;1.00
30150;DHT22;16962;48.646;9.026;2023-07-13T11:45:44;32.60;1.00
30150;DHT22;16962;48.646;9.026;2023-07-13T11:48:34;33.90;1.00
30150;DHT22;16962;48.646;9.026;2023-07-13T11:51:34;34.50;1.00
30150;DHT22;16962;48.646;9.026;2023-07-13T11:54:46;34.00;1.00
30150;DHT22;16962;48.646;9.026;2023-07-13T11:57:44;31.00;1.00
30150;DHT22;16962;48.646;9.026;2023-07-13T12:00:35;31.60;1.00
30150;DHT22;16962;48.646;9.026;2023-07-13T12:03:28;32.10;1.00
30150;DHT22;16962;48.646;9.026;2023-07-13T12:06:30;30.80;99.90
30150;DHT22;16962;48.646;9.026;2023-07-13T12:09:18;30.50;1.00
30150;DHT22;16962;48.646;9.026;2023-07-13T12:12:36;31.90;99.90
30150;DHT22;16962;48.646;9.026;2023-07-13T12:15:43;33.40;99.90
30150;DHT22;16962;48.646;9.026;2023-07-13T12:18:48;33.20;99.90
30150;DHT22;16962;48.646;9.026;2023-07-13T12:22:13;31.70;99.90
30150;DHT22;16962;48.646;9.026;2023-07-13T12:25:14;30.70;1.00
30150;DHT22;16962;48.646;9.026;2023-07-13T12:28:28;31.20;99.90
30150;DHT22;16962;48.646;9.026;2023-07-13T12:34:22;33.20;99.90
30150;DHT22;16962;48.646;9.026;2023-07-13T12:37:12;33.10;99.90
30150;DHT22;16962;48.646;9.026;2023-07-13T12:40:03;31.70;99.90
30150;DHT22;16962;48.646;9.026;2023-07-13T12:42:52;32.20;99.90
30150;DHT22;16962;48.646;9.026;2023-07-13T12:45:40;32.00;99.90
30150;DHT22;16962;48.646;9.026;2023-07-13T12:48:42;32.30;99.90
30150;DHT22;16962;48.646;9.026;2023-07-13T12:51:38;32.80;99.90
30150;DHT22;16962;48.646;9.026;2023-07-13T12:54:27;32.30;99.90
30150;DHT22;16962;48.646;9.026;2023-07-13T12:57:20;32.70;99.90
30150;DHT22;16962;48.646;9.026;2023-07-13T13:00:31;31.30;99.90
30150;DHT22;16962;48.646;9.026;2023-07-13T13:03:32;31.80;99.90
30150;DHT22;16962;48.646;9.026;2023-07-13T13:09:14;31.80;99.90
30150;DHT22;16962;48.646;9.026;2023-07-13T13:12:02;31.80;99.90
30150;DHT22;16962;48.646;9.026;2023-07-13T13:14:49;31.30;99.90
30150;DHT22;16962;48.646;9.026;2023-07-13T13:17:38;30.50;99.90
30150;DHT22;16962;48.646;9.026;2023-07-13T13:20:25;30.00;99.90
30150;DHT22;16962;48.646;9.026;2023-07-13T13:23:16;29.70;99.90
30150;DHT22;16962;48.646;9.026;2023-07-13T13:26:15;29.80;99.90
30150;DHT22;16962;48.646;9.026;2023-07-13T13:29:13;30.30;99.90
30150;DHT22;16962;48.646;9.026;2023-07-13T13:32:03;30.10;99.90
30150;DHT22;16962;48.646;9.026;2023-07-13T13:34:52;30.30;99.90
30150;DHT22;16962;48.646;9.026;2023-07-13T13:37:42;30.40;99.90
30150;DHT22;16962;48.646;9.026;2023-07-13T13:40:31;31.00;99.90
30150;DHT22;16962;48.646;9.026;2023-07-13T13:43:23;31.80;99.90
30150;DHT22;16962;48.646;9.026;2023-07-13T13:46:20;31.40;99.90
30150;DHT22;16962;48.646;9.026;2023-07-13T13:49:15;31.60;99.90
30150;DHT22;16962;48.646;9.026;2023-07-13T13:52:03;32.80;99.90
30150;DHT22;16962;48.646;9.026;2023-07-13T13:54:51;33.10;99.90
30150;DHT22;16962;48.646;9.026;2023-07-13T13:57:42;31.50;99.90
30150;DHT22;16962;48.646;9.026;2023-07-13T14:00:30;30.50;99.90
30150;DHT22;16962;48.646;9.026;2023-07-13T14:03:19;31.10;99.90
30150;DHT22;16962;48.646;9.026;2023-07-13T14:06:11;31.10;99.90
30150;DHT22;16962;48.646;9.026;2023-07-13T14:09:00;30.20;99.90
30150;DHT22;16962;48.646;9.026;2023-07-13T14:11:49;31.10;99.90
30150;DHT22;16962;48.646;9.026;2023-07-13T14:14:38;32.40;99.90
30150;DHT22;16962;48.646;9.026;2023-07-13T14:17:28;33.60;99.90
30150;DHT22;16962;48.646;9.026;2023-07-13T14:20:17;34.20;99.90
30150;DHT22;16962;48.646;9.026;2023-07-13T14:23:05;34.90;99.90
30150;DHT22;16962;48.646;9.026;2023-07-13T14:25:54;34.40;99.90
30150;DHT22;16962;48.646;9.026;2023-07-13T14:28:44;34.00;99.90
30150;DHT22;16962;48.646;9.026;2023-07-13T14:31:33;34.50;99.90
30150;DHT22;16962;48.646;9.026;2023-07-13T14:34:20;34.10;99.90
30150;DHT22;16962;48.646;9.026;2023-07-13T14:37:15;33.00;99.90
30150;DHT22;16962;48.646;9.026;2023-07-13T14:40:19;31.20;99.90
30150;DHT22;16962;48.646;9.026;2023-07-13T14:43:15;29.50;99.90
30150;DHT22;16962;48.646;9.026;2023-07-13T14:46:03;29.10;99.90
30150;DHT22;16962;48.646;9.026;2023-07-13T14:48:51;30.00;99.90
30150;DHT22;16962;48.646;9.026;2023-07-13T14:51:39;30.20;99.90
30150;DHT22;16962;48.646;9.026;2023-07-13T14:54:26;31.70;99.90
30150;DHT22;16962;48.646;9.026;2023-07-13T14:57:16;32.00;99.90
30150;DHT22;16962;48.646;9.026;2023-07-13T15:00:11;31.70;99.90
30150;DHT22;16962;48.646;9.026;2023-07-13T15:03:00;32.30;99.90
30150;DHT22;16962;48.646;9.026;2023-07-13T15:05:49;32.90;99.90
30150;DHT22;16962;48.646;9.026;2023-07-13T15:08:36;33.50;99.90
30150;DHT22;16962;48.646;9.026;2023-07-13T15:11:25;32.90;99.90
30150;DHT22;16962;48.646;9.026;2023-07-13T15:14:12;32.00;99.90
30150;DHT22;16962;48.646;9.026;2023-07-13T15:17:00;32.20;99.90
30150;DHT22;16962;48.646;9.026;2023-07-13T15:19:48;32.70;99.90
30150;DHT22;16962;48.646;9.026;2023-07-13T15:22:36;32.80;99.90
30150;DHT22;16962;48.646;9.026;2023-07-13T15:25:26;32.80;99.90
30150;DHT22;16962;48.646;9.026;2023-07-13T15:28:17;33.40;99.90
30150;DHT22;16962;48.646;9.026;2023-07-13T15:34:14;31.10;99.90
30150;DHT22;16962;48.646;9.026;2023-07-13T15:37:08;29.00;99.90
30150;DHT22;16962;48.646;9.026;2023-07-13T15:39:55;28.20;99.90
30150;DHT22;16962;48.646;9.026;2023-07-13T15:42:44;28.60;99.90
30150;DHT22;16962;48.646;9.026;2023-07-13T15:45:32;29.20;99.90
30150;DHT22;16962;48.646;9.026;2023-07-13T15:48:21;29.70;99.90
30150;DHT22;16962;48.646;9.026;2023-07-13T15:51:14;29.90;99.90
30150;DHT22;16962;48.646;9.026;2023-07-13T15:54:05;29.90;99.90
30150;DHT22;16962;48.646;9.026;2023-07-13T15:56:55;30.30;99.90
30150;DHT22;16962;48.646;9.026;2023-07-13T15:59:44;30.00;99.90
30150;DHT22;16962;48.646;9.026;2023-07-13T16:02:32;29.60;99.90
30150;DHT22;16962;48.646;9.026;2023-07-13T16:05:20;29.20;99.90
30150;DHT22;16962;48.646;9.026;2023-07-13T16:11:15;29.30;99.90
30150;DHT22;16962;48.646;9.026;2023-07-13T16:14:04;28.20;99.90
30150;DHT22;16962;48.646;9.026;2023-07-13T16:16:51;27.40;99.90
30150;DHT22;16962;48.646;9.026;2023-07-13T16:19:43;27.40;99.90
30150;DHT22;16962;48.646;9.026;2023-07-13T16:22:41;27.70;99.90
30150;DHT22;16962;48.646;9.026;2023-07-13T16:25:55;27.80;99.90
30150;DHT22;16962;48.646;9.026;2023-07-13T16:28:59;28.10;99.90
30150;DHT22;16962;48.646;9.026;2023-07-13T16:32:29;27.60;99.90
30150;DHT22;16962;48.646;9.026;2023-07-13T16:36:11;26.90;99.90
30150;DHT22;16962;48.646;9.026;2023-07-13T16:38:59;26.70;99.90
30150;DHT22;16962;48.646;9.026;2023-07-13T16:41:57;26.90;99.90
30150;DHT22;16962;48.646;9.026;2023-07-13T16:44:45;26.90;99.90
30150;DHT22;16962;48.646;9.026;2023-07-13T16:47:32;26.60;99.90
30150;DHT22;16962;48.646;9.026;2023-07-13T16:50:25;26.30;99.90
30150;DHT22;16962;48.646;9.026;2023-07-13T16:53:19;26.10;99.90
30150;DHT22;16962;48.646;9.026;2023-07-13T16:56:14;25.70;99.90
30150;DHT22;16962;48.646;9.026;2023-07-13T16:59:19;25.40;99.90
30150;DHT22;16962;48.646;9.026;2023-07-13T17:05:10;25.00;99.90
30150;DHT22;16962;48.646;9.026;2023-07-13T17:08:00;24.80;99.90
30150;DHT22;16962;48.646;9.026;2023-07-13T17:10:48;24.60;99.90
30150;DHT22;16962;48.646;9.026;2023-07-13T17:13:36;24.50;99.90
30150;DHT22;16962;48.646;9.026;2023-07-13T17:16:24;24.50;99.90
30150;DHT22;16962;48.646;9.026;2023-07-13T17:19:14;24.30;99.90
30150;DHT22;16962;48.646;9.026;2023-07-13T17:22:05;24.20;99.90
30150;DHT22;16962;48.646;9.026;2023-07-13T17:24:58;24.10;99.90
30150;DHT22;16962;48.646;9.026;2023-07-13T17:27:47;24.10;99.90
30150;DHT22;16962;48.646;9.026;2023-07-13T17:30:43;23.90;99.90
30150;DHT22;16962;48.646;9.026;2023-07-13T17:33:37;23.90;99.90
30150;DHT22;16962;48.646;9.026;2023-07-13T17:36:27;23.80;99.90
30150;DHT22;16962;48.646;9.026;2023-07-13T17:39:20;23.90;99.90
30150;DHT22;16962;48.646;9.026;2023-07-13T17:42:12;23.90;99.90
30150;DHT22;16962;48.646;9.026;2023-07-13T17:45:00;23.80;99.90
30150;DHT22;16962;48.646;9.026;2023-07-13T17:47:49;23.80;99.90
30150;DHT22;16962;48.646;9.026;2023-07-13T17:50:51;23.70;99.90
30150;DHT22;16962;48.646;9.026;2023-07-13T17:53:47;23.50;99.90
30150;DHT22;16962;48.646;9.026;2023-07-13T17:56:37;23.30;99.90
30150;DHT22;16962;48.646;9.026;2023-07-13T17:59:27;23.10;99.90
30150;DHT22;16962;48.646;9.026;2023-07-13T18:02:19;22.90;99.90
30150;DHT22;16962;48.646;9.026;2023-07-13T18:05:12;22.80;99.90
30150;DHT22;16962;48.646;9.026;2023-07-13T18:08:03;22.70;1.00
30150;DHT22;16962;48.646;9.026;2023-07-13T18:11:14;22.60;99.90
30150;DHT22;16962;48.646;9.026;2023-07-13T18:14:02;22.40;1.00
30150;DHT22;16962;48.646;9.026;2023-07-13T18:16:58;22.30;1.00
30150;DHT22;16962;48.646;9.026;2023-07-13T18:19:48;22.10;1.00
30150;DHT22;16962;48.646;9.026;2023-07-13T18:22:38;22.00;1.00
30150;DHT22;16962;48.646;9.026;2023-07-13T18:25:26;21.80;1.00
30150;DHT22;16962;48.646;9.026;2023-07-13T18:28:16;21.70;1.00
30150;DHT22;16962;48.646;9.026;2023-07-13T18:31:07;21.60;1.00
30150;DHT22;16962;48.646;9.026;2023-07-13T18:34:03;21.60;1.00
30150;DHT22;16962;48.646;9.026;2023-07-13T18:36:53;21.60;1.00
30150;DHT22;16962;48.646;9.026;2023-07-13T18:39:41;21.50;1.00
30150;DHT22;16962;48.646;9.026;2023-07-13T18:42:28;21.50;1.00
30150;DHT22;16962;48.646;9.026;2023-07-13T18:45:16;21.50;1.00
30150;DHT22;16962;48.646;9.026;2023-07-13T18:48:11;21.40;1.00
30150;DHT22;16962;48.646;9.026;2023-07-13T18:51:01;21.40;1.00
30150;DHT22;16962;48.646;9.026;2023-07-13T18:53:51;21.30;1.00
30150;DHT22;16962;48.646;9.026;2023-07-13T18:56:38;21.30;1.00
30150;DHT22;16962;48.646;9.026;2023-07-13T18:59:28;21.20;1.00
30150;DHT22;16962;48.646;9.026;2023-07-13T19:02:16;21.10;1.00